createdAt,value
2022-12-08T00:01:33.417Z,30.50
2022-12-08T00:04:03.201Z,27.98
2022-12-08T00:06:58.440Z,32.25
2022-12-08T00:09:39.967Z,34.03
2022-12-08T00:12:16.523Z,29.42
2022-12-08T00:14:47.319Z,28.17
2022-12-08T00:17:16.696Z,32.75
2022-12-08T00:19:44.419Z,34.45
2022-12-08T00:22:13.114Z,35.65
2022-12-08T00:24:44.292Z,31.60
2022-12-08T00:27:15.876Z,32.97
2022-12-08T00:29:44.914Z,39.80
2022-12-08T00:32:12.627Z,43.00
2022-12-08T00:34:39.956Z,34.45
2022-12-08T00:37:07.245Z,34.88
2022-12-08T00:39:34.527Z,32.97
2022-12-08T00:42:13.683Z,38.50
2022-12-08T00:44:43.616Z,36.28
2022-12-08T00:47:13.101Z,36.20
2022-12-08T00:49:40.631Z,34.33
2022-12-08T00:52:08.178Z,32.78
2022-12-08T00:54:35.417Z,35.30
2022-12-08T00:57:02.636Z,36.85
2022-12-08T00:59:29.904Z,35.85
2022-12-08T01:01:57.105Z,39.25
2022-12-08T01:04:24.731Z,40.05
2022-12-08T01:06:52.106Z,56.75
2022-12-08T01:09:19.543Z,47.55
2022-12-08T01:11:47.295Z,48.35
2022-12-08T01:14:15.091Z,37.83
2022-12-08T01:16:42.594Z,35.90
2022-12-08T01:19:13.182Z,37.30
2022-12-08T01:21:42.142Z,41.65
2022-12-08T01:24:19.823Z,37.05
2022-12-08T01:26:49.035Z,37.63
2022-12-08T01:29:16.561Z,34.88
2022-12-08T01:31:43.825Z,39.13
2022-12-08T01:34:12.258Z,36.65
2022-12-08T01:36:39.817Z,40.20
2022-12-08T01:39:14.542Z,40.10
2022-12-08T01:41:43.699Z,37.10
2022-12-08T01:44:10.849Z,34.03
2022-12-08T01:46:41.658Z,36.67
2022-12-08T01:49:26.236Z,34.88
2022-12-08T01:51:59.306Z,42.13
2022-12-08T01:54:34.389Z,40.72
2022-12-08T01:57:37.544Z,36.05
2022-12-08T02:00:12.369Z,26.20
2022-12-08T02:03:06.997Z,30.75
2022-12-08T02:05:38.970Z,37.75
2022-12-08T02:08:10.497Z,35.63
2022-12-08T02:10:41.672Z,33.72
2022-12-08T02:13:17.685Z,36.25
2022-12-08T02:15:55.406Z,33.08
2022-12-08T02:18:28.212Z,33.28
2022-12-08T02:21:05.977Z,33.38
2022-12-08T02:24:07.494Z,39.22
2022-12-08T02:27:22.615Z,36.30
2022-12-08T02:30:11.484Z,29.80
2022-12-08T02:33:15.834Z,37.83
2022-12-08T02:36:13.112Z,31.65
2022-12-08T02:39:11.021Z,36.30
2022-12-08T02:42:19.775Z,43.58
2022-12-08T02:45:15.021Z,40.35
2022-12-08T02:47:43.371Z,38.08
2022-12-08T02:50:12.259Z,39.70
2022-12-08T02:52:46.620Z,34.67
2022-12-08T02:55:16.497Z,37.60
2022-12-08T02:58:37.496Z,30.88
2022-12-08T03:01:35.106Z,32.08
2022-12-08T03:04:50.354Z,35.35
2022-12-08T03:07:26.621Z,29.65
2022-12-08T03:10:10.382Z,38.65
2022-12-08T03:12:45.558Z,37.55
2022-12-08T03:15:18.371Z,37.50
2022-12-08T03:17:57.128Z,28.70
2022-12-08T03:20:27.669Z,32.78
2022-12-08T03:23:00.128Z,31.27
2022-12-08T03:25:33.796Z,28.73
2022-12-08T03:28:01.159Z,32.65
2022-12-08T03:30:36.495Z,37.15
2022-12-08T03:33:31.799Z,36.10
2022-12-08T03:36:02.175Z,28.92
2022-12-08T03:38:39.783Z,26.95
2022-12-08T03:41:19.545Z,29.27
2022-12-08T03:43:57.084Z,25.98
2022-12-08T03:48:55.785Z,28.83
2022-12-08T03:51:23.879Z,30.85
2022-12-08T03:53:51.446Z,29.20
2022-12-08T03:56:30.602Z,27.60
2022-12-08T03:58:58.721Z,26.95
2022-12-08T04:01:26.530Z,25.90
2022-12-08T04:03:54.456Z,28.95
2022-12-08T04:06:22.364Z,28.65
2022-12-08T04:08:51.322Z,29.23
2022-12-08T04:11:20.172Z,34.78
2022-12-08T04:13:48.045Z,34.58
2022-12-08T04:16:23.956Z,49.40
2022-12-08T04:18:51.724Z,35.22
2022-12-08T04:21:18.926Z,36.03
2022-12-08T04:23:47.223Z,31.25
2022-12-08T04:26:16.599Z,34.45
2022-12-08T04:28:44.670Z,27.70
2022-12-08T04:31:11.882Z,29.73
2022-12-08T04:33:39.823Z,32.28
2022-12-08T04:36:08.265Z,31.65
2022-12-08T04:38:35.446Z,27.75
2022-12-08T04:41:03.066Z,26.65
2022-12-08T04:43:30.360Z,31.35
2022-12-08T04:45:57.588Z,32.55
2022-12-08T04:48:24.866Z,26.98
2022-12-08T04:50:52.304Z,33.33
2022-12-08T04:53:20.024Z,33.75
2022-12-08T04:55:49.465Z,29.02
2022-12-08T04:58:19.895Z,28.02
2022-12-08T05:00:48.182Z,36.55
2022-12-08T05:03:16.974Z,29.20
2022-12-08T05:05:44.326Z,31.58
2022-12-08T05:08:11.675Z,26.45
2022-12-08T05:10:39.456Z,33.38
2022-12-08T05:13:06.726Z,32.35
2022-12-08T05:15:33.920Z,28.25
2022-12-08T05:18:01.091Z,27.70
2022-12-08T05:20:28.288Z,109.72
2022-12-08T05:22:55.510Z,41.42
2022-12-08T05:25:22.775Z,36.63
2022-12-08T05:27:50.174Z,33.22
2022-12-08T05:30:17.498Z,31.30
2022-12-08T05:32:44.742Z,30.15
2022-12-08T05:35:11.935Z,26.85
2022-12-08T05:37:39.245Z,32.90
2022-12-08T05:40:07.664Z,21.48
2022-12-08T05:42:35.159Z,24.50
2022-12-08T05:45:02.378Z,34.45
2022-12-08T05:47:34.468Z,24.67
2022-12-08T05:50:04.395Z,25.40
2022-12-08T05:52:32.841Z,28.00
2022-12-08T05:55:00.471Z,32.78
2022-12-08T05:57:27.973Z,29.27
2022-12-08T05:59:55.221Z,32.90
2022-12-08T06:02:22.587Z,23.20
2022-12-08T06:04:49.886Z,32.80
2022-12-08T06:07:17.441Z,31.98
2022-12-08T06:09:44.712Z,32.85
2022-12-08T06:12:11.905Z,30.95
2022-12-08T06:14:39.833Z,30.88
2022-12-08T06:17:07.457Z,32.53
2022-12-08T06:19:34.773Z,34.58
2022-12-08T06:22:01.939Z,34.88
2022-12-08T06:24:29.156Z,51.72
2022-12-08T06:26:56.363Z,39.22
2022-12-08T06:29:23.575Z,34.63
2022-12-08T06:31:52.268Z,42.92
2022-12-08T06:34:19.456Z,36.97
2022-12-08T06:36:46.592Z,36.35
2022-12-08T06:39:13.738Z,42.20
2022-12-08T06:42:10.062Z,39.80
2022-12-08T06:44:37.774Z,32.85
2022-12-08T06:47:05.176Z,40.22
2022-12-08T06:49:32.324Z,39.03
2022-12-08T06:51:59.539Z,36.17
2022-12-08T06:54:27.318Z,38.45
2022-12-08T06:56:54.484Z,34.38
2022-12-08T06:59:21.765Z,38.60
2022-12-08T07:01:48.953Z,34.55
2022-12-08T07:04:16.187Z,35.95
2022-12-08T07:06:43.610Z,39.13
2022-12-08T07:09:10.791Z,33.90
2022-12-08T07:11:39.380Z,35.75
2022-12-08T07:14:06.911Z,35.20
2022-12-08T07:16:34.312Z,39.95
2022-12-08T07:19:02.300Z,40.60
2022-12-08T07:21:29.578Z,47.17
2022-12-08T07:23:58.043Z,46.38
2022-12-08T07:26:26.872Z,38.97
2022-12-08T07:28:54.145Z,45.92
2022-12-08T07:31:25.412Z,50.50
2022-12-08T07:33:53.492Z,57.88
2022-12-08T07:36:21.604Z,47.30
2022-12-08T07:38:50.242Z,48.10
2022-12-08T07:41:23.601Z,50.50
2022-12-08T07:43:53.392Z,48.22
2022-12-08T07:46:23.688Z,50.60
2022-12-08T07:48:54.967Z,52.03
2022-12-08T07:51:22.163Z,53.88
2022-12-08T07:53:54.124Z,57.10
2022-12-08T07:56:23.169Z,60.20
2022-12-08T07:58:50.699Z,51.05
2022-12-08T08:01:29.720Z,56.15
2022-12-08T08:04:01.632Z,48.70
2022-12-08T08:06:28.936Z,52.92
2022-12-08T08:08:56.170Z,52.95
2022-12-08T08:11:23.696Z,52.50
2022-12-08T08:13:51.759Z,50.15
2022-12-08T08:16:20.529Z,50.30
2022-12-08T08:18:50.465Z,48.95
2022-12-08T08:24:06.492Z,43.05
2022-12-08T08:26:34.072Z,46.13
2022-12-08T08:29:01.241Z,41.00
2022-12-08T08:31:28.472Z,43.88
2022-12-08T08:33:57.418Z,40.25
2022-12-08T08:36:24.625Z,44.92
2022-12-08T08:38:52.340Z,43.60
2022-12-08T08:41:19.550Z,50.42
2022-12-08T08:43:46.732Z,42.85
2022-12-08T08:46:13.954Z,41.53
2022-12-08T08:48:41.246Z,38.75
2022-12-08T08:51:11.435Z,33.35
2022-12-08T08:53:38.801Z,33.42
2022-12-08T08:56:15.605Z,32.45
2022-12-08T08:58:42.945Z,28.80
2022-12-08T09:01:20.680Z,30.33
2022-12-08T09:03:48.982Z,29.85
2022-12-08T09:06:18.158Z,30.00
2022-12-08T09:08:47.191Z,32.15
2022-12-08T09:11:14.865Z,31.90
2022-12-08T09:13:42.170Z,28.70
2022-12-08T09:16:11.369Z,26.67
2022-12-08T09:18:38.685Z,31.13
2022-12-08T09:21:16.775Z,31.48
2022-12-08T09:23:44.080Z,36.60
2022-12-08T09:26:11.952Z,29.52
2022-12-08T09:28:39.179Z,31.35
2022-12-08T09:31:06.393Z,38.78
2022-12-08T09:33:33.577Z,38.55
2022-12-08T09:36:04.773Z,30.35
2022-12-08T09:38:32.296Z,28.48
2022-12-08T09:41:03.499Z,29.10
2022-12-08T09:43:39.467Z,27.75
2022-12-08T09:46:10.988Z,29.25
2022-12-08T09:48:47.873Z,26.73
2022-12-08T09:51:16.045Z,28.52
2022-12-08T09:53:50.952Z,29.25
2022-12-08T09:56:32.919Z,31.08
2022-12-08T09:59:16.214Z,29.25
2022-12-08T10:04:25.766Z,29.70
2022-12-08T10:07:24.121Z,28.80
2022-12-08T10:10:25.270Z,29.30
2022-12-08T10:13:43.058Z,29.55
2022-12-08T10:16:36.734Z,40.80
2022-12-08T10:19:24.888Z,33.65
2022-12-08T10:21:54.170Z,41.50
2022-12-08T10:24:43.841Z,43.75
2022-12-08T10:27:12.759Z,42.88
2022-12-08T10:29:40.916Z,43.92
2022-12-08T10:32:23.869Z,40.47
2022-12-08T10:35:12.016Z,41.33
2022-12-08T10:37:39.678Z,40.55
2022-12-08T10:40:17.817Z,38.30
2022-12-08T10:42:53.376Z,39.03
2022-12-08T10:45:27.651Z,35.92
2022-12-08T10:48:20.159Z,40.50
2022-12-08T10:50:55.447Z,39.70
2022-12-08T10:53:32.207Z,34.72
2022-12-08T10:56:02.105Z,32.80
2022-12-08T10:58:40.663Z,32.85
2022-12-08T11:01:12.617Z,29.50
2022-12-08T11:04:06.969Z,31.75
2022-12-08T11:06:36.723Z,28.50
2022-12-08T11:09:30.787Z,30.67
2022-12-08T11:12:14.670Z,26.20
2022-12-08T11:14:44.800Z,27.63
2022-12-08T11:17:17.888Z,32.05
2022-12-08T11:19:57.984Z,24.80
2022-12-08T11:22:33.117Z,28.15
2022-12-08T11:25:15.887Z,24.88
2022-12-08T11:27:48.470Z,26.23
2022-12-08T11:30:22.986Z,23.77
2022-12-08T11:32:59.552Z,24.67
2022-12-08T11:35:43.923Z,23.00
2022-12-08T11:38:22.648Z,23.52
2022-12-08T11:41:16.637Z,26.30
2022-12-08T11:44:01.688Z,23.73
2022-12-08T11:46:40.790Z,20.67
2022-12-08T11:49:14.444Z,21.80
2022-12-08T11:51:59.765Z,19.92
2022-12-08T11:54:32.157Z,20.73
2022-12-08T11:57:02.749Z,22.13
2022-12-08T11:59:39.460Z,20.10
2022-12-08T12:02:14.115Z,19.52
2022-12-08T12:05:07.005Z,20.35
2022-12-08T12:08:00.892Z,26.23
2022-12-08T12:11:06.199Z,19.75
2022-12-08T12:14:11.713Z,16.95
2022-12-08T12:16:58.838Z,16.75
2022-12-08T12:19:30.768Z,16.23
2022-12-08T12:22:02.417Z,18.20
2022-12-08T12:24:37.523Z,16.65
2022-12-08T12:27:27.881Z,18.33
2022-12-08T12:30:00.700Z,16.52
2022-12-08T12:32:44.958Z,19.65
2022-12-08T12:35:43.749Z,13.95
2022-12-08T12:38:50.735Z,17.02
2022-12-08T12:41:27.331Z,17.48
2022-12-08T12:44:14.345Z,14.52
2022-12-08T12:46:57.250Z,16.85
2022-12-08T12:49:51.027Z,17.02
2022-12-08T12:52:18.713Z,18.70
2022-12-08T12:55:11.663Z,15.73
2022-12-08T12:57:51.415Z,16.15
2022-12-08T13:00:22.169Z,15.55
2022-12-08T13:02:51.741Z,14.30
2022-12-08T13:05:35.314Z,14.13
2022-12-08T13:08:24.902Z,13.45
2022-12-08T13:11:09.794Z,12.70
2022-12-08T13:13:39.010Z,14.13
2022-12-08T13:16:18.493Z,14.98
2022-12-08T13:18:52.247Z,12.57
2022-12-08T13:21:23.446Z,14.32
2022-12-08T13:24:14.319Z,17.80
2022-12-08T13:27:04.968Z,13.88
2022-12-08T13:29:37.391Z,13.52
2022-12-08T13:33:16.705Z,11.77
2022-12-08T13:35:31.585Z,11.88
2022-12-08T13:38:01.379Z,12.93
2022-12-08T13:40:32.189Z,15.15
2022-12-08T13:43:19.542Z,13.35
2022-12-08T13:46:52.305Z,14.38
2022-12-08T13:56:16.722Z,11.88
2022-12-08T13:57:37.497Z,10.82
2022-12-08T14:00:17.986Z,14.82
2022-12-08T14:02:52.727Z,14.25
2022-12-08T14:05:47.546Z,12.73
2022-12-08T14:08:59.997Z,19.13
2022-12-08T14:11:35.084Z,17.00
2022-12-08T14:14:45.962Z,15.23
2022-12-08T14:17:19.176Z,19.30
2022-12-08T14:20:19.924Z,12.85
2022-12-08T14:22:50.253Z,15.35
2022-12-08T14:25:20.511Z,14.85
2022-12-08T14:27:48.682Z,14.43
2022-12-08T14:30:26.080Z,14.98
2022-12-08T14:32:59.032Z,14.80
2022-12-08T14:38:02.552Z,15.50
2022-12-08T14:40:37.215Z,23.15
2022-12-08T14:43:10.425Z,19.40
2022-12-08T14:45:40.282Z,17.77
2022-12-08T14:48:38.584Z,19.63
2022-12-08T14:51:19.098Z,18.77
2022-12-08T14:54:06.637Z,17.15
2022-12-08T14:56:50.278Z,17.27
2022-12-08T14:59:26.181Z,17.02
2022-12-08T15:02:10.789Z,15.45
2022-12-08T15:04:40.664Z,18.60
2022-12-08T15:07:17.202Z,15.50
2022-12-08T15:09:48.917Z,19.23
2022-12-08T15:12:31.824Z,16.27
2022-12-08T15:15:15.075Z,12.63
2022-12-08T15:20:43.925Z,15.17
2022-12-08T15:23:44.927Z,14.77
2022-12-08T15:26:25.014Z,21.20
2022-12-08T15:28:53.665Z,19.38
2022-12-08T15:31:21.737Z,16.40
2022-12-08T15:33:49.063Z,17.25
2022-12-08T15:36:16.280Z,21.60
2022-12-08T15:38:43.639Z,20.85
2022-12-08T15:41:14.937Z,18.98
2022-12-08T15:43:42.621Z,22.52
2022-12-08T15:46:10.102Z,19.38
2022-12-08T15:48:38.044Z,18.80
2022-12-08T15:51:05.221Z,16.23
2022-12-08T15:53:32.422Z,16.25
2022-12-08T15:58:55.227Z,21.15
2022-12-08T16:01:24.103Z,18.17
2022-12-08T16:09:36.953Z,23.75
2022-12-08T16:12:25.533Z,23.10
2022-12-08T16:17:41.251Z,27.83
2022-12-08T16:20:16.867Z,36.47
2022-12-08T16:22:54.476Z,50.75
2022-12-08T16:25:36.430Z,45.83
2022-12-08T16:28:45.139Z,48.03
2022-12-08T16:31:00.803Z,35.85
2022-12-08T16:33:28.392Z,28.75
2022-12-08T16:35:55.514Z,29.50
2022-12-08T16:38:22.656Z,33.88
2022-12-08T16:41:15.862Z,21.70
2022-12-08T16:43:42.997Z,21.70
2022-12-08T16:46:20.778Z,19.63
2022-12-08T16:48:47.928Z,18.42
2022-12-08T16:51:26.633Z,20.05
2022-12-08T16:53:56.723Z,19.42
2022-12-08T16:56:28.998Z,21.90
2022-12-08T16:58:59.692Z,62.25
2022-12-08T17:01:26.975Z,37.08
2022-12-08T17:06:41.317Z,98.65
2022-12-08T17:09:08.480Z,67.97
2022-12-08T17:11:42.282Z,52.88
2022-12-08T17:14:13.980Z,43.38
2022-12-08T17:16:42.727Z,41.35
2022-12-08T17:19:12.369Z,59.95
2022-12-08T17:21:39.537Z,49.20
2022-12-08T17:24:06.828Z,76.65
2022-12-08T17:26:34.228Z,31.50
2022-12-08T17:29:03.712Z,32.78
2022-12-08T17:31:32.940Z,28.15
2022-12-08T17:34:10.092Z,24.77
2022-12-08T17:36:37.587Z,22.05
2022-12-08T17:39:07.593Z,21.70
2022-12-08T17:41:35.136Z,23.58
2022-12-08T17:44:02.281Z,25.77
2022-12-08T17:46:29.543Z,25.85
2022-12-08T17:48:56.776Z,23.75
2022-12-08T17:51:23.913Z,24.02
2022-12-08T17:53:51.199Z,27.55
2022-12-08T17:56:21.263Z,32.67
2022-12-08T17:58:54.318Z,43.88
2022-12-08T18:01:23.969Z,30.25
2022-12-08T18:03:51.705Z,29.63
2022-12-08T18:06:19.239Z,25.27
2022-12-08T18:08:46.720Z,22.70
2022-12-08T18:11:19.499Z,24.23
2022-12-08T18:13:48.948Z,22.98
2022-12-08T18:16:19.401Z,24.20
2022-12-08T18:18:47.102Z,27.83
2022-12-08T18:21:18.559Z,23.13
2022-12-08T18:23:50.570Z,24.85
2022-12-08T18:26:17.943Z,28.25
2022-12-08T18:28:45.289Z,27.83
2022-12-08T18:31:17.033Z,25.60
2022-12-08T18:33:46.290Z,25.65
2022-12-08T18:36:18.307Z,24.17
2022-12-08T18:38:45.922Z,26.93
2022-12-08T18:41:18.937Z,38.17
2022-12-08T18:46:14.758Z,26.25
2022-12-08T18:48:48.404Z,29.60
2022-12-08T18:51:22.728Z,31.60
2022-12-08T18:53:51.103Z,30.30
2022-12-08T18:56:26.775Z,28.30
2022-12-08T18:58:59.983Z,49.30
2022-12-08T19:01:32.096Z,31.85
2022-12-08T19:06:48.769Z,25.10
2022-12-08T19:09:16.845Z,20.27
2022-12-08T19:11:44.483Z,18.02
2022-12-08T19:14:12.976Z,20.90
2022-12-08T19:16:40.200Z,19.50
2022-12-08T19:19:07.348Z,20.80
2022-12-08T19:21:34.524Z,19.70
2022-12-08T19:24:01.708Z,22.20
2022-12-08T19:26:29.033Z,28.70
2022-12-08T19:28:57.470Z,195.38
2022-12-08T19:31:24.907Z,335.38
2022-12-08T19:33:52.391Z,180.45
2022-12-08T19:36:22.782Z,109.13
2022-12-08T19:39:08.917Z,124.45
2022-12-08T19:41:55.670Z,121.43
2022-12-08T19:44:33.941Z,72.72
2022-12-08T19:47:01.887Z,56.53
2022-12-08T19:49:29.406Z,44.72
2022-12-08T19:51:57.780Z,44.65
2022-12-08T19:54:25.496Z,37.97
2022-12-08T19:56:52.921Z,32.40
2022-12-08T19:59:20.372Z,39.80
2022-12-08T20:01:48.356Z,51.03
2022-12-08T20:04:17.024Z,46.70
2022-12-08T20:06:45.469Z,44.35
2022-12-08T20:09:13.273Z,56.10
2022-12-08T20:11:41.292Z,49.42
2022-12-08T20:14:08.535Z,43.17
2022-12-08T20:16:35.951Z,36.95
2022-12-08T20:19:03.715Z,37.00
2022-12-08T20:21:30.949Z,42.05
2022-12-08T20:23:58.121Z,43.38
2022-12-08T20:26:25.332Z,41.75
2022-12-08T20:28:52.648Z,45.80
2022-12-08T20:31:23.598Z,46.05
2022-12-08T20:33:51.380Z,67.38
2022-12-08T20:36:21.220Z,61.08
2022-12-08T20:38:52.761Z,51.42
2022-12-08T20:41:23.199Z,74.00
2022-12-08T20:43:51.786Z,76.53
2022-12-08T20:46:21.257Z,113.45
2022-12-08T20:48:48.752Z,66.15
2022-12-08T20:51:19.489Z,57.15
2022-12-08T20:53:47.644Z,43.45
2022-12-08T20:56:19.158Z,45.22
2022-12-08T20:58:47.678Z,45.95
2022-12-08T21:01:19.078Z,42.53
2022-12-08T21:03:47.065Z,46.58
2022-12-08T21:06:16.047Z,43.25
2022-12-08T21:08:43.401Z,50.53
2022-12-08T21:11:10.940Z,45.40
2022-12-08T21:13:38.823Z,42.75
2022-12-08T21:16:09.326Z,52.50
2022-12-08T21:18:39.643Z,65.72
2022-12-08T21:21:12.795Z,75.72
2022-12-08T21:23:42.412Z,83.20
2022-12-08T21:26:13.199Z,146.75
2022-12-08T21:28:41.047Z,71.35
2022-12-08T21:31:10.868Z,61.55
2022-12-08T21:33:38.928Z,49.22
2022-12-08T21:36:12.064Z,50.63
2022-12-08T21:38:40.864Z,47.97
2022-12-08T21:41:16.559Z,46.38
2022-12-08T21:43:43.845Z,58.65
2022-12-08T21:46:16.660Z,54.10
2022-12-08T21:51:11.598Z,41.90
2022-12-08T21:53:38.960Z,42.28
2022-12-08T21:56:10.004Z,42.60
2022-12-08T21:58:39.498Z,49.70
2022-12-08T22:01:09.671Z,43.83
2022-12-08T22:03:40.030Z,42.55
2022-12-08T22:06:10.513Z,45.83
2022-12-08T22:08:38.803Z,51.10
2022-12-08T22:11:08.441Z,48.42
2022-12-08T22:13:38.658Z,52.42
2022-12-08T22:16:10.570Z,56.75
2022-12-08T22:18:38.290Z,62.97
2022-12-08T22:21:12.055Z,60.83
2022-12-08T22:23:39.601Z,60.25
2022-12-08T22:26:08.817Z,52.55
2022-12-08T22:28:40.179Z,52.08
2022-12-08T22:31:15.492Z,53.80
2022-12-08T22:33:43.552Z,54.25
2022-12-08T22:36:25.874Z,53.65
2022-12-08T22:38:54.720Z,52.35
2022-12-08T22:41:22.944Z,60.28
2022-12-08T22:43:51.406Z,55.80
2022-12-08T22:46:25.641Z,54.10
2022-12-08T22:48:54.754Z,55.33
2022-12-08T22:51:22.213Z,60.60
2022-12-08T22:53:50.442Z,63.78
2022-12-08T22:56:19.228Z,57.20
2022-12-08T22:58:46.985Z,57.60
2022-12-08T23:01:29.051Z,59.65
2022-12-08T23:03:58.585Z,62.65
2022-12-08T23:06:30.970Z,61.85
2022-12-08T23:08:59.298Z,65.13
2022-12-08T23:11:30.670Z,117.03
2022-12-08T23:14:00.326Z,252.18
2022-12-08T23:16:28.723Z,111.50
2022-12-08T23:18:56.089Z,439.75
2022-12-08T23:21:23.421Z,463.77
2022-12-08T23:23:50.655Z,715.95
2022-12-08T23:26:25.436Z,210.35
2022-12-08T23:28:54.054Z,363.55
2022-12-08T23:31:22.285Z,316.70
2022-12-08T23:33:50.353Z,519.25
2022-12-08T23:36:20.131Z,411.95
2022-12-08T23:38:48.025Z,227.80
2022-12-08T23:41:16.063Z,345.25
2022-12-08T23:43:46.958Z,282.95
2022-12-08T23:46:17.116Z,90.82
2022-12-08T23:48:45.213Z,99.00
2022-12-08T23:51:13.264Z,185.07
2022-12-08T23:53:41.221Z,389.90
2022-12-08T23:56:13.276Z,582.05
2022-12-08T23:58:41.885Z,286.27
